Time;durP1;ratioP1;P1;durP2;ratioP2;P2;SDS_P1;SDS_P2;PMS_P1;PMS_P2;Temp;Humidity;BMP_temperature;BMP_pressure;BME280_temperature;BME280_humidity;BME280_pressure;Samples;Min_cycle;Max_cycle;Signal;HPM_P1;HPM_P2
2023/05/21 00:00:21;;;;;;;3.53;1.10;;;26.80;99.90;;;;;;4882785;29;20210;-96
2023/05/21 00:02:52;;;;;;;2.00;1.17;;;27.00;99.90;;;;;;4893638;29;20213;-95
2023/05/21 00:05:24;;;;;;;4.93;1.27;;;27.00;99.90;;;;;;4890225;29;20210;-94
2023/05/21 00:07:55;;;;;;;2.10;1.33;;;27.10;99.90;;;;;;4897514;29;20198;-92
2023/05/21 00:10:26;;;;;;;2.43;1.00;;;27.10;99.90;;;;;;4926931;29;20206;-93
2023/05/21 00:12:59;;;;;;;1.60;1.07;;;27.00;99.90;;;;;;4918277;29;20254;-96
2023/05/21 00:15:30;;;;;;;3.17;1.10;;;27.10;99.90;;;;;;4913392;29;20262;-96
2023/05/21 00:18:01;;;;;;;3.23;1.33;;;27.00;99.90;;;;;;4903080;29;20379;-96
2023/05/21 00:20:34;;;;;;;1.33;1.00;;;26.80;99.90;;;;;;4888725;29;20226;-94
2023/05/21 00:23:06;;;;;;;2.53;1.40;;;26.70;99.90;;;;;;4889940;29;20261;-94
2023/05/21 00:25:36;;;;;;;3.87;1.53;;;26.70;99.90;;;;;;4899198;29;20252;-94
2023/05/21 00:28:07;;;;;;;2.43;1.30;;;26.50;99.90;;;;;;4899398;29;20205;-95
2023/05/21 00:30:38;;;;;;;2.83;1.10;;;26.40;99.90;;;;;;4900123;29;20220;-96
2023/05/21 00:33:12;;;;;;;2.20;1.13;;;26.30;99.90;;;;;;4899727;29;20218;-96
2023/05/21 00:35:45;;;;;;;3.40;1.40;;;26.20;99.90;;;;;;4896838;29;20221;-95
2023/05/21 00:38:16;;;;;;;2.40;1.20;;;26.00;99.90;;;;;;4893923;29;20209;-93
2023/05/21 00:40:47;;;;;;;1.80;1.20;;;25.90;99.90;;;;;;4918534;29;20213;-94
2023/05/21 00:43:18;;;;;;;1.33;1.10;;;26.00;99.90;;;;;;4918359;29;20886;-95
2023/05/21 00:45:49;;;;;;;1.90;1.23;;;26.10;99.90;;;;;;4913487;29;20250;-96
2023/05/21 00:48:20;;;;;;;2.13;1.10;;;26.00;99.90;;;;;;4906232;29;20252;-93
2023/05/21 00:50:53;;;;;;;1.87;1.20;;;25.80;99.90;;;;;;4918255;29;20292;-94
2023/05/21 00:53:24;;;;;;;3.43;1.10;;;25.90;99.90;;;;;;4908925;29;20209;-95
2023/05/21 00:55:55;;;;;;;1.57;1.00;;;26.40;99.90;;;;;;4924383;29;20269;-94
2023/05/21 00:58:26;;;;;;;3.13;1.20;;;26.80;99.90;;;;;;4907917;29;20217;-96
2023/05/21 01:00:57;;;;;;;2.43;0.90;;;27.20;99.90;;;;;;4914756;29;20209;-94
2023/05/21 01:03:28;;;;;;;2.30;1.10;;;26.80;99.90;;;;;;4918368;29;20202;-95
2023/05/21 01:06:02;;;;;;;2.40;0.83;;;27.10;99.90;;;;;;4907654;29;20194;-96
2023/05/21 01:08:34;;;;;;;1.20;0.90;;;27.00;99.90;;;;;;4934875;29;20208;-95
2023/05/21 01:11:05;;;;;;;3.40;0.73;;;26.90;99.70;;;;;;4924513;29;20205;-93
2023/05/21 01:13:39;;;;;;;1.10;0.80;;;26.70;99.20;;;;;;4924105;29;20224;-94
2023/05/21 01:16:12;;;;;;;1.80;0.80;;;26.20;99.90;;;;;;4916330;29;20206;-94
2023/05/21 01:18:45;;;;;;;2.50;0.80;;;26.50;99.90;;;;;;4900169;29;20210;-96
2023/05/21 01:21:19;;;;;;;3.23;0.70;;;27.00;98.10;;;;;;4900019;29;20224;-96
2023/05/21 01:23:52;;;;;;;0.90;0.80;;;27.20;97.20;;;;;;4906940;29;20301;-96
2023/05/21 01:26:24;;;;;;;3.23;0.90;;;27.40;96.90;;;;;;4903924;29;20206;-96
2023/05/21 01:28:55;;;;;;;1.43;0.77;;;27.50;95.90;;;;;;4889530;29;20210;-96
2023/05/21 01:31:31;;;;;;;2.70;0.90;;;27.80;96.00;;;;;;4892485;29;20209;-96
2023/05/21 01:34:06;;;;;;;3.27;1.10;;;28.30;95.20;;;;;;4904470;29;20205;-95
2023/05/21 01:36:43;;;;;;;1.77;0.90;;;28.50;95.00;;;;;;4887269;29;20301;-95
2023/05/21 01:39:21;;;;;;;2.13;0.87;;;28.60;95.90;;;;;;4905563;29;20206;-96
2023/05/21 01:41:55;;;;;;;0.90;0.60;;;28.40;94.30;;;;;;4905614;29;20275;-96
2023/05/21 01:44:27;;;;;;;2.00;0.80;;;28.20;95.10;;;;;;4902589;29;20554;-95
2023/05/21 01:46:59;;;;;;;1.73;0.60;;;27.80;94.10;;;;;;4903928;29;20574;-95
2023/05/21 01:49:31;;;;;;;2.60;0.80;;;27.40;94.20;;;;;;4903200;29;20217;-96
2023/05/21 01:52:02;;;;;;;1.50;0.87;;;26.80;94.50;;;;;;4902558;29;20210;-95
2023/05/21 01:54:34;;;;;;;2.33;0.70;;;26.60;94.40;;;;;;4915509;29;20675;-93
2023/05/21 01:57:06;;;;;;;1.30;0.80;;;26.20;94.60;;;;;;4911853;29;20216;-94
2023/05/21 01:59:37;;;;;;;1.33;1.10;;;25.80;94.00;;;;;;4920429;29;20240;-94
2023/05/21 02:02:08;;;;;;;1.40;0.80;;;25.20;94.50;;;;;;4921844;29;20618;-94
2023/05/21 02:04:40;;;;;;;2.03;1.00;;;24.80;94.70;;;;;;4918470;29;20229;-96
2023/05/21 02:07:13;;;;;;;1.43;0.70;;;24.50;95.80;;;;;;4923009;29;20219;-95
2023/05/21 02:09:46;;;;;;;1.07;0.70;;;24.40;94.60;;;;;;4917077;29;20208;-96
2023/05/21 02:12:16;;;;;;;2.60;0.70;;;24.20;95.50;;;;;;4910841;29;20214;-96
2023/05/21 02:14:49;;;;;;;2.97;1.00;;;23.90;95.80;;;;;;4921641;29;20209;-92
2023/05/21 02:17:20;;;;;;;1.47;0.80;;;23.70;95.30;;;;;;4932491;29;20205;-92
2023/05/21 02:19:51;;;;;;;1.93;0.73;;;23.50;96.10;;;;;;4914532;29;20660;-94
2023/05/21 02:22:22;;;;;;;2.77;0.87;;;23.40;95.90;;;;;;4915129;29;20331;-92
2023/05/21 02:24:54;;;;;;;0.80;0.50;;;23.10;95.70;;;;;;4933468;29;20247;-95
2023/05/21 02:27:26;;;;;;;0.70;0.63;;;23.00;95.20;;;;;;4926776;29;20221;-95
2023/05/21 02:29:56;;;;;;;1.03;0.70;;;22.90;95.60;;;;;;4907566;29;20217;-95
2023/05/21 02:32:27;;;;;;;1.33;0.70;;;22.80;95.40;;;;;;4899076;29;20202;-94
2023/05/21 02:34:58;;;;;;;2.00;0.60;;;22.80;95.90;;;;;;4909208;29;20209;-95
2023/05/21 02:37:32;;;;;;;2.87;0.90;;;22.70;96.40;;;;;;4914824;29;20511;-94
2023/05/21 02:40:08;;;;;;;3.83;1.10;;;22.60;96.80;;;;;;4900380;29;20664;-93
2023/05/21 02:42:42;;;;;;;1.93;0.70;;;22.60;98.10;;;;;;4896922;29;20240;-95
2023/05/21 02:45:14;;;;;;;1.10;0.63;;;22.50;98.20;;;;;;4891105;29;20632;-92
2023/05/21 02:47:46;;;;;;;1.50;0.90;;;22.30;98.60;;;;;;4897604;29;20221;-92
2023/05/21 02:50:17;;;;;;;1.13;1.00;;;22.30;99.30;;;;;;4897547;29;20268;-90
2023/05/21 02:52:49;;;;;;;1.77;1.00;;;22.20;99.90;;;;;;4907050;29;20209;-92
2023/05/21 02:55:23;;;;;;;5.10;0.90;;;22.10;99.50;;;;;;4902568;29;20308;-92
2023/05/21 02:57:54;;;;;;;1.93;0.83;;;22.10;99.60;;;;;;4906427;29;20687;-93
2023/05/21 03:00:26;;;;;;;1.70;0.77;;;22.00;99.90;;;;;;4899696;29;20218;-92
2023/05/21 03:02:57;;;;;;;2.20;1.03;;;21.90;99.90;;;;;;4900749;29;20301;-92
2023/05/21 03:05:29;;;;;;;7.40;1.00;;;21.80;99.90;;;;;;4901912;29;20300;-92
2023/05/21 03:08:12;;;;;;;3.03;0.83;;;21.70;99.90;;;;;;4910423;29;20776;-95
2023/05/21 03:10:48;;;;;;;2.07;1.03;;;21.60;99.90;;;;;;4920910;29;20213;-96
2023/05/21 03:13:21;;;;;;;2.20;1.03;;;21.50;99.90;;;;;;4918727;29;20207;-96
2023/05/21 03:18:30;;;;;;;3.23;0.80;;;21.30;99.90;;;;;;5042762;23;20242;-96
2023/05/21 03:23:40;;;;;;;1.33;0.80;;;21.00;99.90;;;;;;5128390;23;20316;-96
2023/05/21 03:26:17;;;;;;;0.70;0.50;;;20.90;99.90;;;;;;4959746;29;20259;-94
2023/05/21 03:28:51;;;;;;;2.93;0.70;;;20.70;99.90;;;;;;5261389;23;20248;-96
2023/05/21 03:31:27;;;;;;;0.93;0.60;;;20.70;99.90;;;;;;4933072;29;20235;-96
2023/05/21 03:34:00;;;;;;;2.17;0.80;;;20.60;99.90;;;;;;4919372;29;20211;-96
2023/05/21 03:36:34;;;;;;;1.37;0.70;;;20.50;99.90;;;;;;4928411;29;20223;-94
2023/05/21 03:40:08;;;;;;;1.23;0.70;;;20.50;99.90;;;;;;4922007;29;20213;-96
2023/05/21 03:42:43;;;;;;;1.73;0.80;;;20.40;99.90;;;;;;4931521;29;20236;-96
2023/05/21 03:45:15;;;;;;;1.50;0.60;;;20.30;99.90;;;;;;4929811;29;20211;-96
2023/05/21 03:47:49;;;;;;;1.90;0.70;;;20.20;99.90;;;;;;4926216;29;20226;-96
2023/05/21 03:53:11;;;;;;;1.10;0.60;;;20.00;99.90;;;;;;4933219;29;20272;-96
2023/05/21 04:01:41;;;;;;;1.77;1.00;;;19.60;99.90;;;;;;4936647;29;20241;-96
2023/05/21 04:04:16;;;;;;;2.60;0.93;;;19.60;99.90;;;;;;4929536;29;20247;-95
2023/05/21 04:06:50;;;;;;;3.03;1.00;;;19.50;99.90;;;;;;4935313;29;20220;-96
2023/05/21 04:09:29;;;;;;;1.87;0.90;;;19.40;99.90;;;;;;5820224;23;20225;-96
2023/05/21 04:15:04;;;;;;;2.27;0.70;;;19.20;99.90;;;;;;5656800;23;20268;-96
2023/05/21 04:20:15;;;;;;;2.43;0.80;;;19.00;99.90;;;;;;4953365;24;20246;-96
2023/05/21 04:22:49;;;;;;;1.37;0.97;;;18.90;99.90;;;;;;4957100;29;20244;-96
2023/05/21 04:25:22;;;;;;;3.67;0.80;;;18.90;99.90;;;;;;4958348;29;20192;-96
2023/05/21 04:27:54;;;;;;;1.23;0.80;;;18.90;99.90;;;;;;4956381;29;20260;-96
2023/05/21 04:30:29;;;;;;;3.13;0.97;;;18.90;99.90;;;;;;4959045;29;20200;-96
2023/05/21 04:33:01;;;;;;;1.07;0.70;;;18.80;99.90;;;;;;4943505;29;20223;-94
2023/05/21 04:35:34;;;;;;;1.07;0.77;;;18.80;99.90;;;;;;4959426;29;20271;-96
2023/05/21 04:38:07;;;;;;;1.53;0.90;;;18.70;99.90;;;;;;4946767;29;20277;-96
2023/05/21 04:40:42;;;;;;;2.53;1.40;;;18.60;99.90;;;;;;4944895;29;20240;-96
2023/05/21 04:56:40;;;;;;;4.30;1.10;;;18.20;99.90;;;;;;5851631;23;20296;-93
2023/05/21 05:23:31;;;;;;;2.27;1.30;;;17.30;99.90;;;;;;5549492;23;20255;-96
2023/05/21 05:26:07;;;;;;;3.57;1.47;;;17.30;99.90;;;;;;4965062;29;20202;-96
2023/05/21 21:25:37;;;;;;;1.97;1.20;;;15.30;99.90;;;;;;5888567;23;20182;31
2023/05/21 21:28:09;;;;;;;4.63;1.13;;;15.60;99.90;;;;;;4852678;29;20223;-90
2023/05/21 21:30:43;;;;;;;1.70;1.00;;;15.40;99.90;;;;;;4856482;29;20223;-92
2023/05/21 21:33:16;;;;;;;2.33;0.90;;;15.30;99.90;;;;;;4858103;29;20214;-93
2023/05/21 21:35:48;;;;;;;1.23;0.90;;;15.70;99.90;;;;;;4849025;29;20301;-92
2023/05/21 21:38:20;;;;;;;1.27;1.17;;;15.90;99.90;;;;;;4844445;29;20226;-96
2023/05/21 21:40:53;;;;;;;2.13;1.20;;;16.10;99.90;;;;;;4833301;29;20291;-96
2023/05/21 21:43:25;;;;;;;1.80;0.93;;;16.20;99.90;;;;;;4832122;29;20217;-96
2023/05/21 21:45:56;;;;;;;1.60;1.20;;;16.40;99.90;;;;;;4838671;29;20262;-96
2023/05/21 21:48:27;;;;;;;1.67;0.80;;;16.00;99.90;;;;;;4849951;29;20226;-96
2023/05/21 21:50:59;;;;;;;2.20;0.87;;;16.40;99.90;;;;;;4877850;29;20253;-96
2023/05/21 21:53:30;;;;;;;2.47;1.00;;;16.60;99.90;;;;;;4879781;29;20294;-97
2023/05/21 21:56:02;;;;;;;1.67;1.00;;;16.70;99.90;;;;;;4884041;29;20215;-96
2023/05/21 21:58:33;;;;;;;3.03;1.10;;;16.90;99.90;;;;;;4883108;29;20221;-96
2023/05/21 22:01:04;;;;;;;4.10;1.30;;;16.80;99.90;;;;;;4887479;29;20202;-96
2023/05/21 22:03:35;;;;;;;1.97;1.20;;;17.00;99.90;;;;;;4887557;29;20199;-96
2023/05/21 22:06:07;;;;;;;2.37;1.20;;;17.10;99.90;;;;;;4886895;29;20235;-96
2023/05/21 22:08:39;;;;;;;3.60;1.20;;;16.80;99.90;;;;;;4886432;29;20234;-96
2023/05/21 22:11:13;;;;;;;0.90;0.90;;;16.70;99.90;;;;;;4887363;29;20210;-92
2023/05/21 22:13:44;;;;;;;2.17;1.23;;;16.10;99.90;;;;;;4883401;29;20279;-96
2023/05/21 22:16:16;;;;;;;1.83;1.27;;;15.60;99.90;;;;;;4867163;29;20315;-96
2023/05/21 22:18:48;;;;;;;1.20;1.03;;;15.50;99.90;;;;;;4866492;29;20222;-96
2023/05/21 22:21:25;;;;;;;3.70;1.27;;;15.50;99.90;;;;;;4867734;29;20195;-96
2023/05/21 22:23:57;;;;;;;2.70;1.20;;;15.60;99.90;;;;;;5188700;23;20243;-96
2023/05/21 22:26:30;;;;;;;2.23;1.50;;;15.60;99.90;;;;;;4854436;29;20219;-94
2023/05/21 22:29:04;;;;;;;2.70;1.20;;;15.60;99.90;;;;;;4853870;29;20208;-96
2023/05/21 22:31:35;;;;;;;1.10;1.00;;;15.60;99.90;;;;;;4871491;29;20211;-95
2023/05/21 22:34:06;;;;;;;1.60;1.13;;;15.60;99.90;;;;;;4870739;29;20309;-96
2023/05/21 22:36:38;;;;;;;1.57;0.90;;;15.70;99.90;;;;;;4871105;29;20214;-96
2023/05/21 22:39:10;;;;;;;2.10;1.17;;;15.50;99.90;;;;;;4882907;29;20253;-95
2023/05/21 22:41:43;;;;;;;1.87;1.13;;;15.60;99.90;;;;;;4860416;29;20200;-95
2023/05/21 22:44:14;;;;;;;1.70;1.17;;;15.70;99.90;;;;;;4866922;29;20205;-95
2023/05/21 22:46:46;;;;;;;4.63;1.40;;;15.60;99.90;;;;;;4866736;29;20210;-94
2023/05/21 22:49:18;;;;;;;1.80;1.20;;;15.40;99.90;;;;;;4856923;29;20244;-95
2023/05/21 22:51:51;;;;;;;2.80;1.00;;;15.10;99.90;;;;;;4862104;29;20220;-95
2023/05/21 22:54:22;;;;;;;1.47;1.03;;;15.20;99.90;;;;;;4865588;29;20271;-96
2023/05/21 22:56:55;;;;;;;2.20;0.97;;;15.20;99.90;;;;;;4867477;29;20204;-96
2023/05/21 22:59:27;;;;;;;2.43;1.10;;;15.30;99.90;;;;;;4861375;29;20291;-96
2023/05/21 23:01:58;;;;;;;2.87;1.10;;;15.10;99.90;;;;;;4861190;29;20204;-96
2023/05/21 23:04:33;;;;;;;2.73;1.43;;;15.30;99.90;;;;;;4862051;29;20215;-96
2023/05/21 23:07:13;;;;;;;2.30;1.10;;;15.30;99.90;;;;;;4865340;29;20299;-96
2023/05/21 23:09:45;;;;;;;3.83;1.10;;;15.30;99.90;;;;;;4851823;29;20211;-96
2023/05/21 23:12:18;;;;;;;1.93;1.00;;;15.20;99.90;;;;;;4850034;29;20226;-96
2023/05/21 23:14:50;;;;;;;2.13;0.90;;;15.30;99.90;;;;;;4863102;29;20266;-96
2023/05/21 23:17:22;;;;;;;2.83;1.07;;;15.10;99.90;;;;;;4860570;29;20251;-96
2023/05/21 23:19:53;;;;;;;2.23;0.80;;;15.20;99.90;;;;;;4850948;29;20276;-96
2023/05/21 23:22:24;;;;;;;2.33;1.10;;;15.40;99.90;;;;;;4850591;29;20220;-96
2023/05/21 23:25:09;;;;;;;3.37;0.90;;;15.40;99.90;;;;;;4858729;29;20230;-96
2023/05/21 23:27:42;;;;;;;2.13;1.30;;;15.40;99.90;;;;;;4872317;29;20207;-96
2023/05/21 23:30:14;;;;;;;2.10;1.10;;;15.50;99.90;;;;;;4858137;29;20243;-96
2023/05/21 23:32:54;;;;;;;2.93;1.13;;;15.40;99.90;;;;;;4847872;29;20204;-95
2023/05/21 23:35:25;;;;;;;2.57;1.00;;;15.40;99.90;;;;;;4846994;29;20221;-93
2023/05/21 23:37:56;;;;;;;2.17;0.87;;;15.40;99.90;;;;;;4828099;29;20209;-95
2023/05/21 23:40:28;;;;;;;2.67;1.00;;;15.20;99.90;;;;;;4828906;29;20300;-96
2023/05/21 23:43:01;;;;;;;2.77;1.10;;;15.20;99.90;;;;;;4830128;29;20219;-95
2023/05/21 23:45:32;;;;;;;1.67;1.13;;;15.30;99.90;;;;;;4854184;29;20262;-96
2023/05/21 23:48:04;;;;;;;1.80;1.03;;;15.40;99.90;;;;;;4846730;29;20223;-96
2023/05/21 23:50:35;;;;;;;2.33;0.90;;;15.30;99.90;;;;;;4847028;29;20218;-96
2023/05/21 23:53:06;;;;;;;1.63;0.93;;;15.30;99.90;;;;;;4846418;29;20239;-96
2023/05/21 23:55:38;;;;;;;2.00;1.10;;;15.30;99.90;;;;;;4846649;29;20302;-96
2023/05/21 23:58:11;;;;;;;4.37;1.10;;;15.20;99.90;;;;;;4845897;29;20982;-96
